createdAt,value
2018-09-24T00:00:31.291Z,82.90
2018-09-24T00:05:39.634Z,80.40
2018-09-24T00:10:47.895Z,83.60
2018-09-24T00:15:56.247Z,83.20
2018-09-24T00:21:04.574Z,83.90
2018-09-24T00:26:12.916Z,83.70
2018-09-24T00:31:21.330Z,83.60
2018-09-24T00:36:29.653Z,84.30
2018-09-24T00:41:38.237Z,86.30
2018-09-24T00:46:46.710Z,88.30
2018-09-24T00:51:54.965Z,87.70
2018-09-24T00:57:03.274Z,86.90
2018-09-24T01:02:11.570Z,87.60
2018-09-24T01:07:19.941Z,87.50
2018-09-24T01:12:28.321Z,88.50
2018-09-24T01:17:37.063Z,88.70
2018-09-24T01:22:45.305Z,91.10
2018-09-24T01:27:53.705Z,92.60
2018-09-24T01:33:01.993Z,93.50
2018-09-24T01:38:10.364Z,94.70
2018-09-24T01:43:18.726Z,94.30
2018-09-24T01:48:27.093Z,93.90
2018-09-24T01:53:35.467Z,94.20
2018-09-24T01:58:43.826Z,93.80
2018-09-24T02:03:52.311Z,95.30
2018-09-24T02:09:00.595Z,95.20
2018-09-24T02:14:08.934Z,96.90
2018-09-24T02:19:17.197Z,97.40
2018-09-24T02:24:25.530Z,96.70
2018-09-24T02:29:33.883Z,97.60
2018-09-24T02:34:42.209Z,99.00
2018-09-24T02:39:50.481Z,99.80
2018-09-24T02:44:58.997Z,99.70
2018-09-24T02:50:07.362Z,99.90
2018-09-24T02:55:17.782Z,99.90
2018-09-24T03:00:26.077Z,99.90
2018-09-24T03:05:34.256Z,99.90
2018-09-24T03:10:42.678Z,99.90
2018-09-24T03:15:51.106Z,99.90
2018-09-24T03:20:59.365Z,99.90
2018-09-24T03:26:07.687Z,99.90
2018-09-24T03:31:16.039Z,99.90
2018-09-24T03:36:24.349Z,99.90
2018-09-24T03:41:32.661Z,99.90
2018-09-24T03:46:41.283Z,99.90
2018-09-24T03:51:49.550Z,99.90
2018-09-24T03:56:57.890Z,99.90
2018-09-24T04:02:06.271Z,99.90
2018-09-24T04:07:20.490Z,99.90
2018-09-24T04:12:34.650Z,99.90
2018-09-24T04:17:48.786Z,99.90
2018-09-24T04:23:02.826Z,99.90
2018-09-24T04:28:16.939Z,99.90
2018-09-24T04:33:30.973Z,99.90
2018-09-24T04:38:45.013Z,99.90
2018-09-24T04:44:00.217Z,99.90
2018-09-24T04:49:14.365Z,99.90
2018-09-24T04:54:28.417Z,99.90
2018-09-24T04:59:42.749Z,99.90
2018-09-24T05:04:56.842Z,99.90
2018-09-24T05:10:10.937Z,99.90
2018-09-24T05:15:25.021Z,99.90
2018-09-24T05:20:39.093Z,99.90
2018-09-24T05:25:53.194Z,99.90
2018-09-24T05:31:07.465Z,99.90
2018-09-24T05:36:21.674Z,99.90
2018-09-24T05:41:35.670Z,99.90
2018-09-24T05:46:49.631Z,99.90
2018-09-24T05:52:03.721Z,99.90
2018-09-24T05:57:17.834Z,82.70
2018-09-24T06:02:31.889Z,88.90
2018-09-24T06:07:46.114Z,91.70
2018-09-24T06:13:00.344Z,87.00
2018-09-24T06:18:14.424Z,91.00
2018-09-24T06:23:28.490Z,99.90
2018-09-24T06:28:42.526Z,95.80
2018-09-24T06:33:56.522Z,94.80
2018-09-24T06:39:12.326Z,86.20
2018-09-24T06:44:26.494Z,82.00
2018-09-24T06:49:40.601Z,76.60
2018-09-24T06:54:54.590Z,81.20
2018-09-24T07:00:08.702Z,85.20
2018-09-24T07:05:22.764Z,78.20
2018-09-24T07:10:36.856Z,71.30
2018-09-24T07:15:50.909Z,66.20
2018-09-24T07:21:05.005Z,63.20
2018-09-24T07:26:19.211Z,59.20
2018-09-24T07:31:33.407Z,61.70
2018-09-24T07:36:47.534Z,68.80
2018-09-24T07:42:01.754Z,71.10
2018-09-24T07:47:15.819Z,74.30
2018-09-24T07:52:29.895Z,67.90
2018-09-24T07:57:43.988Z,70.20
2018-09-24T08:02:58.156Z,66.40
2018-09-24T08:08:12.362Z,71.80
2018-09-24T08:13:26.431Z,58.80
2018-09-24T08:18:40.510Z,57.20
2018-09-24T08:23:54.574Z,56.30
2018-09-24T08:29:08.684Z,57.50
2018-09-24T08:34:22.798Z,62.00
2018-09-24T08:39:36.854Z,52.50
2018-09-24T08:44:50.950Z,46.40
2018-09-24T08:50:05.110Z,50.10
2018-09-24T08:55:19.117Z,53.70
2018-09-24T09:00:33.134Z,55.00
2018-09-24T09:05:47.270Z,51.80
2018-09-24T09:11:01.407Z,49.40
2018-09-24T09:16:15.482Z,44.80
2018-09-24T09:21:29.602Z,44.10
2018-09-24T09:26:43.609Z,43.70
2018-09-24T09:31:57.732Z,39.60
2018-09-24T09:37:11.842Z,37.60
2018-09-24T09:42:25.937Z,39.10
2018-09-24T09:47:40.001Z,38.50
2018-09-24T09:52:54.057Z,40.10
2018-09-24T09:58:08.173Z,38.40
2018-09-24T10:03:22.206Z,35.70
2018-09-24T10:08:36.299Z,41.50
2018-09-24T10:13:50.315Z,45.40
2018-09-24T10:19:04.330Z,45.20
2018-09-24T10:24:18.411Z,41.50
2018-09-24T10:29:32.451Z,44.70
2018-09-24T10:34:46.558Z,43.50
2018-09-24T10:40:00.705Z,43.80
2018-09-24T10:45:14.701Z,41.40
2018-09-24T10:50:28.802Z,39.10
2018-09-24T10:55:42.908Z,41.50
2018-09-24T11:00:56.902Z,44.90
2018-09-24T11:06:10.890Z,45.70
2018-09-24T11:11:24.906Z,41.60
2018-09-24T11:16:39.049Z,42.50
2018-09-24T11:21:52.899Z,42.50
2018-09-24T11:27:06.904Z,44.40
2018-09-24T11:32:20.960Z,41.90
2018-09-24T11:37:35.062Z,39.80
2018-09-24T11:42:49.045Z,38.80
2018-09-24T11:48:03.160Z,40.10
2018-09-24T11:53:17.145Z,37.10
2018-09-24T11:58:31.351Z,37.50
2018-09-24T12:03:45.367Z,38.30
2018-09-24T12:08:59.527Z,39.20
2018-09-24T12:14:13.613Z,39.30
2018-09-24T12:19:27.708Z,39.60
2018-09-24T12:24:41.731Z,38.50
2018-09-24T12:29:55.717Z,36.20
2018-09-24T12:35:09.843Z,35.90
2018-09-24T12:40:23.878Z,34.30
2018-09-24T12:45:37.774Z,36.40
2018-09-24T12:50:51.717Z,36.10
2018-09-24T12:56:05.786Z,38.30
2018-09-24T13:01:19.882Z,38.50
2018-09-24T13:06:34.020Z,39.80
2018-09-24T13:11:48.178Z,39.30
2018-09-24T13:17:02.321Z,39.80
2018-09-24T13:22:16.430Z,40.70
2018-09-24T13:27:30.522Z,39.90
2018-09-24T13:32:44.727Z,39.70
2018-09-24T13:37:58.717Z,39.80
2018-09-24T13:43:12.637Z,38.90
2018-09-24T13:48:26.648Z,37.70
2018-09-24T13:53:40.822Z,39.10
2018-09-24T13:58:54.858Z,37.70
2018-09-24T14:04:08.979Z,38.50
2018-09-24T14:09:23.075Z,38.50
2018-09-24T14:14:37.266Z,38.40
2018-09-24T14:19:51.336Z,37.70
2018-09-24T14:25:05.393Z,37.80
2018-09-24T14:30:19.567Z,37.80
2018-09-24T14:35:33.462Z,38.50
2018-09-24T14:40:47.530Z,38.70
2018-09-24T14:46:01.515Z,39.70
2018-09-24T14:51:15.562Z,40.50
2018-09-24T14:56:29.519Z,40.50
2018-09-24T15:01:43.527Z,39.10
2018-09-24T15:06:57.589Z,39.30
2018-09-24T15:12:11.676Z,40.70
2018-09-24T15:17:25.728Z,39.70
2018-09-24T15:22:39.846Z,40.60
2018-09-24T15:27:53.965Z,39.60
2018-09-24T15:33:08.270Z,41.30
2018-09-24T15:38:22.212Z,41.40
2018-09-24T15:43:36.326Z,42.60
2018-09-24T15:48:50.401Z,44.20
2018-09-24T15:54:04.446Z,44.90
2018-09-24T15:59:18.580Z,44.80
2018-09-24T16:04:32.736Z,44.70
2018-09-24T16:09:46.730Z,45.50
2018-09-24T16:15:00.809Z,44.90
2018-09-24T16:20:14.906Z,44.30
2018-09-24T16:25:29.017Z,45.00
2018-09-24T16:30:43.073Z,44.00
2018-09-24T16:35:57.114Z,45.20
2018-09-24T16:41:11.348Z,46.20
2018-09-24T16:46:25.514Z,46.30
2018-09-24T16:51:39.526Z,46.80
2018-09-24T16:56:53.589Z,47.90
2018-09-24T17:02:07.541Z,48.20
2018-09-24T17:07:21.709Z,49.00
2018-09-24T17:12:35.799Z,49.80
2018-09-24T17:17:49.835Z,49.20
2018-09-24T17:23:04.017Z,50.50
2018-09-24T17:28:18.234Z,50.40
2018-09-24T17:33:32.346Z,51.00
2018-09-24T17:38:46.506Z,51.60
2018-09-24T17:44:00.623Z,52.10
2018-09-24T17:49:14.629Z,53.70
2018-09-24T17:54:28.820Z,55.30
2018-09-24T17:59:42.994Z,55.70
2018-09-24T18:04:57.137Z,56.20
2018-09-24T18:10:11.302Z,57.30
2018-09-24T18:15:25.400Z,58.30
2018-09-24T18:20:39.582Z,59.20
2018-09-24T18:25:53.760Z,58.60
2018-09-24T18:31:07.950Z,57.10
2018-09-24T18:36:29.133Z,57.20
2018-09-24T18:41:43.155Z,56.40
2018-09-24T18:46:57.262Z,55.90
2018-09-24T18:52:11.419Z,56.70
2018-09-24T18:57:27.514Z,56.80
2018-09-24T19:02:41.646Z,58.20
2018-09-24T19:07:55.833Z,57.00
2018-09-24T19:13:09.889Z,56.60
2018-09-24T19:18:24.007Z,58.10
2018-09-24T19:23:38.072Z,59.60
2018-09-24T19:28:52.206Z,59.60
2018-09-24T19:34:06.321Z,59.10
2018-09-24T19:39:20.338Z,59.80
2018-09-24T19:44:34.514Z,59.70
2018-09-24T19:49:48.607Z,61.50
2018-09-24T20:00:37.036Z,61.50
2018-09-24T20:05:44.942Z,61.80
2018-09-24T20:10:52.853Z,61.70
2018-09-24T20:16:06.909Z,62.10
2018-09-24T20:21:14.926Z,63.40
2018-09-24T20:26:24.810Z,65.30
2018-09-24T20:31:32.769Z,63.90
2018-09-24T20:36:40.765Z,65.10
2018-09-24T20:41:48.630Z,65.20
2018-09-24T20:46:56.535Z,63.80
2018-09-24T20:52:04.430Z,66.60
2018-09-24T20:57:12.286Z,65.40
2018-09-24T21:02:20.118Z,66.20
2018-09-24T21:07:28.029Z,68.10
2018-09-24T21:12:35.950Z,67.60
2018-09-24T21:17:43.813Z,68.80
2018-09-24T21:22:51.765Z,68.90
2018-09-24T21:27:59.736Z,70.50
2018-09-24T21:33:07.719Z,69.90
2018-09-24T21:38:15.625Z,70.20
2018-09-24T21:43:23.518Z,72.60
2018-09-24T21:48:31.406Z,73.20
2018-09-24T21:53:39.371Z,74.40
2018-09-24T21:58:47.325Z,75.20
2018-09-24T22:03:55.166Z,75.60
2018-09-24T22:09:03.025Z,77.20
2018-09-24T22:14:10.966Z,78.60
2018-09-24T22:19:18.933Z,79.40
2018-09-24T22:24:26.861Z,79.80
2018-09-24T22:29:34.749Z,79.40
2018-09-24T22:34:42.609Z,79.70
2018-09-24T22:39:57.361Z,80.50
2018-09-24T22:45:05.315Z,81.40
2018-09-24T22:50:13.300Z,82.50
2018-09-24T22:55:21.235Z,82.80
2018-09-24T23:00:29.245Z,82.90
2018-09-24T23:05:37.053Z,83.10
2018-09-24T23:10:44.994Z,85.00
2018-09-24T23:15:52.931Z,85.90
2018-09-24T23:21:00.741Z,86.60
2018-09-24T23:26:08.685Z,87.20
2018-09-24T23:31:16.590Z,86.90
2018-09-24T23:36:24.558Z,87.00
2018-09-24T23:41:32.490Z,86.90
2018-09-24T23:46:40.334Z,86.90
2018-09-24T23:51:55.014Z,87.70
2018-09-24T23:57:02.930Z,88.60
